createdAt,value
2019-03-21T00:03:23.828Z,101485.49
2019-03-21T00:08:44.693Z,101488.99
2019-03-21T00:14:07.451Z,101489.66
2019-03-21T00:19:27.604Z,101495.27
2019-03-21T00:24:47.591Z,101498.09
2019-03-21T00:30:17.576Z,101491.63
2019-03-21T00:35:38.470Z,101495.88
2019-03-21T00:40:56.113Z,101495.37
2019-03-21T00:46:14.710Z,101500.09
2019-03-21T00:51:33.284Z,101492.85
2019-03-21T00:56:51.714Z,101491.10
2019-03-21T01:02:11.276Z,101492.78
2019-03-21T01:07:29.926Z,101489.22
2019-03-21T01:12:48.579Z,101483.23
2019-03-21T01:18:08.224Z,101482.73
2019-03-21T01:23:29.748Z,101479.18
2019-03-21T01:28:49.847Z,101478.56
2019-03-21T01:34:09.794Z,101477.09
2019-03-21T01:39:28.431Z,101469.84
2019-03-21T01:44:47.093Z,101469.70
2019-03-21T01:50:08.620Z,101468.63
2019-03-21T01:55:31.626Z,101468.60
2019-03-21T02:00:53.514Z,101462.31
2019-03-21T02:06:12.155Z,101458.61
2019-03-21T02:11:50.777Z,101457.00
2019-03-21T02:17:10.247Z,101460.66
2019-03-21T02:22:48.165Z,101451.05
2019-03-21T02:28:06.855Z,101446.38
2019-03-21T02:33:30.956Z,101437.59
2019-03-21T02:38:53.321Z,101428.41
2019-03-21T02:44:16.546Z,101435.79
2019-03-21T02:49:35.232Z,101427.03
2019-03-21T02:54:55.292Z,101430.63
2019-03-21T03:00:36.425Z,101433.36
2019-03-21T03:05:56.532Z,101447.13
2019-03-21T03:11:24.085Z,101442.53
2019-03-21T03:16:43.979Z,101439.56
2019-03-21T03:22:24.771Z,101440.26
2019-03-21T03:27:48.913Z,101437.80
2019-03-21T03:33:08.532Z,101444.05
2019-03-21T03:38:28.229Z,101442.97
2019-03-21T03:43:49.171Z,101449.51
2019-03-21T03:49:29.409Z,101443.24
2019-03-21T04:00:10.855Z,101450.16
2019-03-21T04:05:30.680Z,101445.37
2019-03-21T04:10:51.931Z,101459.33
2019-03-21T04:16:10.570Z,101450.97
2019-03-21T04:21:29.629Z,101450.86
2019-03-21T04:26:48.282Z,101452.25
2019-03-21T04:32:07.018Z,101453.59
2019-03-21T04:37:27.381Z,101454.45
2019-03-21T04:42:47.591Z,101459.72
2019-03-21T04:48:07.701Z,101455.60
2019-03-21T04:53:29.871Z,101453.77
2019-03-21T04:58:49.539Z,101459.23
2019-03-21T05:04:08.172Z,101456.67
2019-03-21T05:09:31.343Z,101459.30
2019-03-21T05:14:51.492Z,101454.99
2019-03-21T05:20:14.482Z,101456.89
2019-03-21T05:25:35.079Z,101465.80
2019-03-21T05:30:57.120Z,101462.31
2019-03-21T05:36:41.069Z,101466.39
2019-03-21T05:42:02.862Z,101470.24
2019-03-21T05:47:23.004Z,101475.41
2019-03-21T05:52:42.068Z,101477.05
2019-03-21T05:58:00.723Z,101473.00
2019-03-21T06:03:28.204Z,101485.99
2019-03-21T06:08:46.599Z,101484.87
2019-03-21T06:14:05.222Z,101490.54
2019-03-21T06:19:26.770Z,101482.98
2019-03-21T06:25:08.791Z,101485.17
2019-03-21T06:30:30.250Z,101494.98
2019-03-21T06:35:53.244Z,101499.41
2019-03-21T06:41:13.374Z,101516.53
2019-03-21T06:46:33.518Z,101520.84
2019-03-21T06:51:53.262Z,101514.40
2019-03-21T06:57:13.056Z,101521.92
2019-03-21T07:02:37.055Z,101533.30
2019-03-21T07:08:00.188Z,101537.99
2019-03-21T07:13:21.971Z,101542.26
2019-03-21T07:18:41.810Z,101537.38
2019-03-21T07:24:01.936Z,101551.02
2019-03-21T07:29:22.728Z,101554.70
2019-03-21T07:34:43.151Z,101546.17
2019-03-21T07:40:01.498Z,101544.60
2019-03-21T07:50:40.377Z,101555.14
2019-03-21T07:55:59.256Z,101547.81
2019-03-21T08:01:18.167Z,101547.61
2019-03-21T08:06:37.934Z,101545.36
2019-03-21T08:11:58.122Z,101550.25
2019-03-21T08:17:18.184Z,101551.08
2019-03-21T08:22:38.333Z,101566.98
2019-03-21T08:27:57.158Z,101562.03
2019-03-21T08:33:16.698Z,101565.91
2019-03-21T08:38:39.423Z,101564.89
2019-03-21T08:43:59.183Z,101558.20
2019-03-21T08:49:20.868Z,101556.20
2019-03-21T08:54:39.952Z,101570.22
2019-03-21T08:59:59.423Z,101574.20
2019-03-21T09:05:18.053Z,101571.02
2019-03-21T09:10:36.693Z,101567.34
2019-03-21T09:15:59.929Z,101569.53
2019-03-21T09:21:20.327Z,101556.42
2019-03-21T09:26:41.069Z,101567.30
2019-03-21T09:32:01.312Z,101565.05
2019-03-21T09:37:21.064Z,101557.02
2019-03-21T09:42:39.699Z,101565.23
2019-03-21T09:47:59.982Z,101570.11
2019-03-21T09:53:18.657Z,101560.02
2019-03-21T09:58:40.675Z,101561.54
2019-03-21T10:04:00.540Z,101562.77
2019-03-21T10:09:19.169Z,101569.04
2019-03-21T10:14:37.793Z,101567.83
2019-03-21T10:19:57.808Z,101556.83
2019-03-21T10:25:17.365Z,101551.59
2019-03-21T10:30:40.286Z,101555.42
2019-03-21T10:36:01.515Z,101544.58
2019-03-21T10:41:20.147Z,101550.47
2019-03-21T10:46:39.028Z,101551.61
2019-03-21T10:51:58.816Z,101555.36
2019-03-21T10:57:18.444Z,101552.64
2019-03-21T11:02:57.976Z,101551.84
2019-03-21T11:08:18.806Z,101546.70
2019-03-21T11:13:39.671Z,101544.17
2019-03-21T11:19:01.406Z,101540.17
2019-03-21T11:24:21.036Z,101540.02
2019-03-21T11:29:41.049Z,101546.78
2019-03-21T11:35:01.154Z,101532.44
2019-03-21T11:40:19.999Z,101529.36
2019-03-21T11:45:42.629Z,101535.91
2019-03-21T11:51:01.603Z,101526.64
2019-03-21T11:56:20.233Z,101523.47
2019-03-21T12:01:39.051Z,101512.02
2019-03-21T12:06:59.024Z,101510.17
2019-03-21T12:12:21.307Z,101505.03
2019-03-21T12:17:39.936Z,101499.95
2019-03-21T12:22:58.916Z,101497.48
2019-03-21T12:28:17.533Z,101488.88
2019-03-21T12:33:38.588Z,101486.40
2019-03-21T12:39:00.315Z,101479.42
2019-03-21T12:44:18.946Z,101473.30
2019-03-21T12:49:38.067Z,101463.95
2019-03-21T12:54:57.701Z,101467.73
2019-03-21T13:00:17.783Z,101462.91
2019-03-21T13:05:38.030Z,101456.09
2019-03-21T13:10:56.593Z,101446.87
2019-03-21T13:16:15.234Z,101449.28
2019-03-21T13:21:33.810Z,101442.09
2019-03-21T13:26:54.481Z,101435.14
2019-03-21T13:32:12.363Z,101425.64
2019-03-21T13:37:32.391Z,101424.00
2019-03-21T13:42:51.018Z,101425.22
2019-03-21T13:48:10.971Z,101421.25
2019-03-21T13:53:29.591Z,101414.09
2019-03-21T13:58:48.251Z,101406.87
2019-03-21T14:04:09.780Z,101405.00
2019-03-21T14:09:26.210Z,101393.33
2019-03-21T14:14:45.728Z,101379.02
2019-03-21T14:20:09.381Z,101383.43
2019-03-21T14:25:28.100Z,101376.97
2019-03-21T14:30:47.673Z,101374.09
2019-03-21T14:36:07.813Z,101370.12
2019-03-21T14:41:26.887Z,101368.47
2019-03-21T14:46:45.540Z,101365.94
2019-03-21T14:52:04.740Z,101358.25
2019-03-21T14:57:26.017Z,101359.30
2019-03-21T15:02:44.644Z,101361.59
2019-03-21T15:08:03.297Z,101353.25
2019-03-21T15:13:24.419Z,101355.09
2019-03-21T15:18:43.055Z,101343.00
2019-03-21T15:24:02.101Z,101334.38
2019-03-21T15:29:20.734Z,101333.00
2019-03-21T15:34:39.441Z,101336.13
2019-03-21T15:39:58.067Z,101327.86
2019-03-21T15:45:23.233Z,101323.86
2019-03-21T15:50:42.962Z,101323.61
2019-03-21T15:56:22.447Z,101321.03
2019-03-21T16:01:46.588Z,101326.91
2019-03-21T16:07:05.222Z,101329.20
2019-03-21T16:12:25.323Z,101321.63
2019-03-21T16:17:44.253Z,101314.74
2019-03-21T16:23:05.915Z,101307.52
2019-03-21T16:28:29.675Z,101308.41
2019-03-21T16:33:51.488Z,101308.67
2019-03-21T16:39:10.039Z,101316.42
2019-03-21T16:44:29.984Z,101311.99
2019-03-21T16:49:51.579Z,101309.34
2019-03-21T16:55:12.734Z,101306.87
2019-03-21T17:00:32.440Z,101304.26
2019-03-21T17:05:57.544Z,101302.87
2019-03-21T17:11:17.927Z,101299.94
2019-03-21T17:16:39.021Z,101295.09
2019-03-21T17:22:16.941Z,101298.51
2019-03-21T17:27:37.892Z,101302.45
2019-03-21T17:32:56.728Z,101311.43
2019-03-21T17:38:16.828Z,101314.61
2019-03-21T17:43:54.819Z,101311.95
2019-03-21T17:49:14.982Z,101312.72
2019-03-21T17:54:41.530Z,101302.20
2019-03-21T17:59:56.688Z,101299.22
2019-03-21T18:05:16.610Z,101307.34
2019-03-21T18:10:36.022Z,101309.74
2019-03-21T18:15:54.570Z,101312.03
2019-03-21T18:21:15.587Z,101312.81
2019-03-21T18:26:35.679Z,101312.64
2019-03-21T18:31:54.340Z,101317.53
2019-03-21T18:37:17.020Z,101326.08
2019-03-21T18:42:40.397Z,101326.65
2019-03-21T18:53:20.305Z,101331.36
2019-03-21T18:58:42.150Z,101332.47
2019-03-21T19:04:01.853Z,101327.30
2019-03-21T19:09:20.860Z,101325.95
2019-03-21T19:14:40.872Z,101331.56
2019-03-21T19:20:02.365Z,101328.00
2019-03-21T19:25:25.744Z,101326.42
2019-03-21T19:30:40.545Z,101323.88
2019-03-21T19:36:01.897Z,101327.42
2019-03-21T19:41:23.505Z,101324.52
2019-03-21T19:46:42.143Z,101321.14
2019-03-21T19:57:22.699Z,101326.02
2019-03-21T20:02:42.459Z,101328.97
2019-03-21T20:08:07.447Z,101331.48
2019-03-21T20:13:19.918Z,101335.61
2019-03-21T20:18:41.447Z,101324.50
2019-03-21T20:24:20.484Z,101323.47
2019-03-21T20:29:39.136Z,101328.94
2019-03-21T20:34:57.777Z,101318.45
2019-03-21T20:40:21.775Z,101325.46
2019-03-21T20:45:43.911Z,101323.42
2019-03-21T20:51:02.667Z,101320.12
2019-03-21T20:56:23.062Z,101316.55
2019-03-21T21:01:41.954Z,101315.75
2019-03-21T21:07:04.616Z,101316.70
2019-03-21T21:12:23.531Z,101304.36
2019-03-21T21:17:43.224Z,101299.59
2019-03-21T21:23:03.907Z,101303.63
2019-03-21T21:28:24.346Z,101301.95
2019-03-21T21:33:42.970Z,101296.81
2019-03-21T21:39:01.540Z,101297.23
2019-03-21T21:44:39.434Z,101293.80
2019-03-21T21:55:21.195Z,101291.22
2019-03-21T22:05:58.936Z,101291.61
2019-03-21T22:11:36.816Z,101284.37
2019-03-21T22:17:00.724Z,101283.89
2019-03-21T22:22:19.500Z,101277.03
2019-03-21T22:27:39.105Z,101280.21
2019-03-21T22:32:57.651Z,101281.63
2019-03-21T22:38:16.219Z,101281.13
2019-03-21T22:43:38.640Z,101279.78
2019-03-21T22:48:57.232Z,101280.05
2019-03-21T22:54:15.889Z,101275.66
2019-03-21T22:59:34.534Z,101265.83
2019-03-21T23:04:55.330Z,101259.25
2019-03-21T23:10:14.241Z,101260.89
2019-03-21T23:15:37.750Z,101249.64
2019-03-21T23:21:00.352Z,101247.73
2019-03-21T23:26:20.407Z,101243.73
2019-03-21T23:31:39.051Z,101243.00
2019-03-21T23:36:59.685Z,101234.02
2019-03-21T23:42:18.305Z,101248.21
2019-03-21T23:47:38.404Z,101242.19
2019-03-21T23:52:59.874Z,101230.78
2019-03-21T23:58:18.572Z,101237.13
